Mc Cook, Nebraska
Current Conditions -  °F | °C
As of 11:53 AM on Sunday 21 Dec 2014 (Local Time) from KMCK Reporting Station
Clear Clear  
Wind Chill: 40°   Ceiling: Unl
Heat Index: 45°   Visibility: 10mi
Dew Point: 32°   Wind: 10mph
Humidity: 60%   Direction: 180°S
Pressure: 29.67"   Gusts: NA
Location:  40.1761°N, 100.646°W
Report Text: KMCK 211753Z AUTO 18009KT 10SM CLR 07/00 A2967 RMK AO2 SLP060 T00720000 10072 21033 58026
Loading
Personal Weather Stations






























Interactive Weather Map New forecast layout! Learn more

10-Day Weather Forecast

Advertisements
Track Severe Weather on mobile